sensor_id;sensor_type;location;lat;lon;timestamp;pressure;altitude;pressure_sealevel;temperature;humidity
13013;BME280;22580;57.670;12.006;2022-09-09T00:00:41;101354.63;;;17.10;87.40
13013;BME280;22580;57.670;12.006;2022-09-09T00:03:16;101398.06;;;17.37;87.39
13013;BME280;22580;57.670;12.006;2022-09-09T00:05:50;101375.75;;;16.74;89.38
13013;BME280;22580;57.670;12.006;2022-09-09T00:08:20;101402.06;;;17.02;88.96
13013;BME280;22580;57.670;12.006;2022-09-09T00:10:54;101387.38;;;16.54;91.05
13013;BME280;22580;57.670;12.006;2022-09-09T00:13:33;101378.53;;;16.84;90.12
13013;BME280;22580;57.670;12.006;2022-09-09T00:16:04;101365.88;;;16.84;89.34
13013;BME280;22580;57.670;12.006;2022-09-09T00:18:50;101384.06;;;17.13;88.96
13013;BME280;22580;57.670;12.006;2022-09-09T00:21:23;101376.47;;;16.97;88.81
13013;BME280;22580;57.670;12.006;2022-09-09T00:23:54;101305.03;;;16.80;88.38
13013;BME280;22580;57.670;12.006;2022-09-09T00:26:29;101352.00;;;16.98;88.24
13013;BME280;22580;57.670;12.006;2022-09-09T00:29:04;101355.25;;;16.92;89.64
13013;BME280;22580;57.670;12.006;2022-09-09T00:31:32;101368.09;;;16.58;90.90
13013;BME280;22580;57.670;12.006;2022-09-09T00:34:08;101346.53;;;16.37;91.62
13013;BME280;22580;57.670;12.006;2022-09-09T00:36:37;101360.97;;;16.99;89.43
13013;BME280;22580;57.670;12.006;2022-09-09T00:39:05;101344.16;;;17.26;87.75
13013;BME280;22580;57.670;12.006;2022-09-09T00:41:43;101339.03;;;17.23;87.42
13013;BME280;22580;57.670;12.006;2022-09-09T00:44:25;101329.38;;;17.30;86.94
13013;BME280;22580;57.670;12.006;2022-09-09T00:47:07;101361.72;;;16.80;89.99
13013;BME280;22580;57.670;12.006;2022-09-09T00:49:45;101357.16;;;17.01;88.95
13013;BME280;22580;57.670;12.006;2022-09-09T00:52:25;101352.97;;;17.37;87.48
13013;BME280;22580;57.670;12.006;2022-09-09T00:55:03;101335.63;;;16.90;89.28
13013;BME280;22580;57.670;12.006;2022-09-09T00:57:32;101341.72;;;17.23;88.59
13013;BME280;22580;57.670;12.006;2022-09-09T01:00:21;101325.34;;;17.15;88.38
13013;BME280;22580;57.670;12.006;2022-09-09T01:03:11;101341.31;;;17.27;87.56
13013;BME280;22580;57.670;12.006;2022-09-09T01:05:46;101335.97;;;16.55;91.06
13013;BME280;22580;57.670;12.006;2022-09-09T01:08:31;101334.53;;;16.72;90.82
13013;BME280;22580;57.670;12.006;2022-09-09T01:11:04;101265.66;;;16.57;89.59
13013;BME280;22580;57.670;12.006;2022-09-09T01:13:34;101297.59;;;16.73;89.53
13013;BME280;22580;57.670;12.006;2022-09-09T01:16:08;101313.63;;;16.95;89.71
13013;BME280;22580;57.670;12.006;2022-09-09T01:18:40;101323.25;;;16.36;92.42
13013;BME280;22580;57.670;12.006;2022-09-09T01:21:16;101271.19;;;16.46;91.15
13013;BME280;22580;57.670;12.006;2022-09-09T01:24:03;101262.72;;;16.29;91.80
13013;BME280;22580;57.670;12.006;2022-09-09T01:26:35;101313.84;;;16.61;91.54
13013;BME280;22580;57.670;12.006;2022-09-09T01:29:07;101312.13;;;16.81;90.99
13013;BME280;22580;57.670;12.006;2022-09-09T01:31:37;101306.94;;;16.48;92.21
13013;BME280;22580;57.670;12.006;2022-09-09T01:34:10;101282.63;;;16.89;90.05
13013;BME280;22580;57.670;12.006;2022-09-09T01:36:42;101316.38;;;16.74;91.18
13013;BME280;22580;57.670;12.006;2022-09-09T01:39:10;101304.63;;;16.33;93.04
13013;BME280;22580;57.670;12.006;2022-09-09T01:41:39;101188.59;;;15.82;92.09
13013;BME280;22580;57.670;12.006;2022-09-09T01:44:07;101272.91;;;16.77;90.79
13013;BME280;22580;57.670;12.006;2022-09-09T01:46:35;101296.06;;;16.08;94.61
13013;BME280;22580;57.670;12.006;2022-09-09T01:49:03;101276.84;;;16.01;94.72
13013;BME280;22580;57.670;12.006;2022-09-09T01:51:32;101282.59;;;16.28;94.30
13013;BME280;22580;57.670;12.006;2022-09-09T01:53:59;101276.59;;;16.25;94.27
13013;BME280;22580;57.670;12.006;2022-09-09T01:56:38;101284.69;;;16.55;92.78
13013;BME280;22580;57.670;12.006;2022-09-09T01:59:24;101228.63;;;16.28;92.64
13013;BME280;22580;57.670;12.006;2022-09-09T02:02:06;101294.09;;;16.61;92.54
13013;BME280;22580;57.670;12.006;2022-09-09T02:04:39;101288.44;;;16.33;93.79
13013;BME280;22580;57.670;12.006;2022-09-09T02:07:25;101261.66;;;16.00;95.23
13013;BME280;22580;57.670;12.006;2022-09-09T02:10:00;101256.38;;;16.40;93.24
13013;BME280;22580;57.670;12.006;2022-09-09T02:12:29;101253.06;;;16.06;94.42
13013;BME280;22580;57.670;12.006;2022-09-09T02:15:02;101229.56;;;16.18;93.59
13013;BME280;22580;57.670;12.006;2022-09-09T02:17:34;101274.28;;;16.41;93.56
13013;BME280;22580;57.670;12.006;2022-09-09T02:20:05;101283.50;;;16.38;93.96
13013;BME280;22580;57.670;12.006;2022-09-09T02:22:35;101264.63;;;16.38;93.74
13013;BME280;22580;57.670;12.006;2022-09-09T02:25:08;101279.63;;;16.31;94.19
13013;BME280;22580;57.670;12.006;2022-09-09T02:27:37;101257.09;;;16.42;93.59
13013;BME280;22580;57.670;12.006;2022-09-09T02:30:07;101217.25;;;16.25;93.10
13013;BME280;22580;57.670;12.006;2022-09-09T02:32:36;101261.06;;;16.68;92.85
13013;BME280;22580;57.670;12.006;2022-09-09T02:35:08;101269.75;;;16.51;93.48
13013;BME280;22580;57.670;12.006;2022-09-09T02:37:37;101251.78;;;16.61;92.86
13013;BME280;22580;57.670;12.006;2022-09-09T02:40:06;101257.13;;;16.52;93.77
13013;BME280;22580;57.670;12.006;2022-09-09T02:42:38;101268.09;;;16.60;93.59
13013;BME280;22580;57.670;12.006;2022-09-09T02:45:11;101226.66;;;16.30;94.06
13013;BME280;22580;57.670;12.006;2022-09-09T02:47:44;101247.94;;;16.64;93.44
13013;BME280;22580;57.670;12.006;2022-09-09T02:50:17;101180.31;;;15.95;95.12
13013;BME280;22580;57.670;12.006;2022-09-09T02:52:54;101240.59;;;16.35;95.08
13013;BME280;22580;57.670;12.006;2022-09-09T02:55:37;101224.16;;;16.48;94.04
13013;BME280;22580;57.670;12.006;2022-09-09T02:58:09;101201.03;;;16.46;93.75
13013;BME280;22580;57.670;12.006;2022-09-09T03:00:39;101240.63;;;16.76;93.08
13013;BME280;22580;57.670;12.006;2022-09-09T03:03:07;101249.94;;;16.92;92.63
13013;BME280;22580;57.670;12.006;2022-09-09T03:05:35;101222.81;;;17.03;91.80
13013;BME280;22580;57.670;12.006;2022-09-09T03:08:02;101237.16;;;16.64;93.61
13013;BME280;22580;57.670;12.006;2022-09-09T03:10:30;101213.25;;;16.19;95.04
13013;BME280;22580;57.670;12.006;2022-09-09T03:12:57;101243.03;;;15.76;98.10
13013;BME280;22580;57.670;12.006;2022-09-09T03:15:24;101180.00;;;15.67;97.55
13013;BME280;22580;57.670;12.006;2022-09-09T03:17:56;101227.72;;;15.97;97.21
13013;BME280;22580;57.670;12.006;2022-09-09T03:20:23;101211.44;;;16.29;95.65
13013;BME280;22580;57.670;12.006;2022-09-09T03:22:51;101169.50;;;16.16;95.25
13013;BME280;22580;57.670;12.006;2022-09-09T03:25:18;101224.34;;;16.26;96.09
13013;BME280;22580;57.670;12.006;2022-09-09T03:27:45;101215.94;;;16.19;96.04
13013;BME280;22580;57.670;12.006;2022-09-09T03:30:12;101212.19;;;16.11;96.32
13013;BME280;22580;57.670;12.006;2022-09-09T03:32:39;101197.09;;;16.29;95.53
13013;BME280;22580;57.670;12.006;2022-09-09T03:35:08;101174.94;;;16.25;94.64
13013;BME280;22580;57.670;12.006;2022-09-09T03:37:35;101163.78;;;16.09;95.77
13013;BME280;22580;57.670;12.006;2022-09-09T03:40:04;101185.78;;;16.35;95.55
13013;BME280;22580;57.670;12.006;2022-09-09T03:42:32;101197.84;;;16.31;95.75
13013;BME280;22580;57.670;12.006;2022-09-09T03:44:59;101199.50;;;16.01;97.26
13013;BME280;22580;57.670;12.006;2022-09-09T03:47:26;101206.03;;;15.99;98.13
13013;BME280;22580;57.670;12.006;2022-09-09T03:49:52;101199.97;;;15.86;99.12
13013;BME280;22580;57.670;12.006;2022-09-09T03:52:21;101117.28;;;15.24;99.52
13013;BME280;22580;57.670;12.006;2022-09-09T03:54:50;101187.34;;;16.07;98.40
13013;BME280;22580;57.670;12.006;2022-09-09T03:57:17;101178.84;;;16.12;97.97
13013;BME280;22580;57.670;12.006;2022-09-09T03:59:44;101180.44;;;16.54;96.22
13013;BME280;22580;57.670;12.006;2022-09-09T04:02:11;101192.19;;;16.13;97.43
13013;BME280;22580;57.670;12.006;2022-09-09T04:04:38;101170.72;;;15.60;99.61
13013;BME280;22580;57.670;12.006;2022-09-09T04:07:05;101133.44;;;15.65;98.92
13013;BME280;22580;57.670;12.006;2022-09-09T04:09:34;101155.50;;;16.01;98.21
13013;BME280;22580;57.670;12.006;2022-09-09T04:12:01;101177.34;;;15.98;98.88
13013;BME280;22580;57.670;12.006;2022-09-09T04:14:28;101090.00;;;15.80;97.85
13013;BME280;22580;57.670;12.006;2022-09-09T04:16:56;101163.09;;;16.57;96.30
13013;BME280;22580;57.670;12.006;2022-09-09T04:19:23;101170.06;;;16.59;95.96
13013;BME280;22580;57.670;12.006;2022-09-09T04:21:51;101169.00;;;16.31;97.26
13013;BME280;22580;57.670;12.006;2022-09-09T04:24:18;101166.13;;;15.93;99.61
13013;BME280;22580;57.670;12.006;2022-09-09T04:26:47;101164.59;;;16.00;99.60
13013;BME280;22580;57.670;12.006;2022-09-09T04:29:14;101158.53;;;16.38;97.81
13013;BME280;22580;57.670;12.006;2022-09-09T04:31:41;101148.66;;;16.18;98.58
13013;BME280;22580;57.670;12.006;2022-09-09T04:34:09;101162.59;;;16.23;98.93
13013;BME280;22580;57.670;12.006;2022-09-09T04:36:36;101091.78;;;15.69;99.35
13013;BME280;22580;57.670;12.006;2022-09-09T04:39:04;101145.72;;;16.80;96.34
13013;BME280;22580;57.670;12.006;2022-09-09T04:41:31;101156.13;;;16.94;95.92
13013;BME280;22580;57.670;12.006;2022-09-09T04:44:00;101154.44;;;16.53;97.35
13013;BME280;22580;57.670;12.006;2022-09-09T04:46:28;101093.94;;;16.06;97.98
13013;BME280;22580;57.670;12.006;2022-09-09T04:48:54;101158.66;;;16.06;99.97
13013;BME280;22580;57.670;12.006;2022-09-09T04:51:22;101142.22;;;16.09;99.80
13013;BME280;22580;57.670;12.006;2022-09-09T04:53:49;101141.94;;;16.12;99.80
13013;BME280;22580;57.670;12.006;2022-09-09T04:56:20;101119.28;;;16.24;98.81
13013;BME280;22580;57.670;12.006;2022-09-09T04:58:47;101151.13;;;16.30;99.36
13013;BME280;22580;57.670;12.006;2022-09-09T05:01:17;101140.28;;;16.21;99.78
13013;BME280;22580;57.670;12.006;2022-09-09T05:03:44;101133.34;;;16.28;99.50
13013;BME280;22580;57.670;12.006;2022-09-09T05:06:13;101091.06;;;15.67;100.00
13013;BME280;22580;57.670;12.006;2022-09-09T05:08:41;101052.75;;;15.94;99.21
13013;BME280;22580;57.670;12.006;2022-09-09T05:11:16;101140.06;;;16.33;99.28
13013;BME280;22580;57.670;12.006;2022-09-09T05:13:44;101129.66;;;16.79;97.86
13013;BME280;22580;57.670;12.006;2022-09-09T05:16:12;101142.63;;;16.35;99.61
13013;BME280;22580;57.670;12.006;2022-09-09T05:18:41;101143.16;;;16.69;98.29
13013;BME280;22580;57.670;12.006;2022-09-09T05:21:09;101131.84;;;16.45;98.96
13013;BME280;22580;57.670;12.006;2022-09-09T05:23:37;101072.53;;;16.74;96.39
13013;BME280;22580;57.670;12.006;2022-09-09T05:26:11;101129.56;;;16.50;98.83
13013;BME280;22580;57.670;12.006;2022-09-09T05:28:39;101078.72;;;16.55;97.40
13013;BME280;22580;57.670;12.006;2022-09-09T05:31:07;101069.16;;;16.91;95.66
13013;BME280;22580;57.670;12.006;2022-09-09T05:33:35;101095.00;;;16.74;97.94
13013;BME280;22580;57.670;12.006;2022-09-09T05:36:05;101082.50;;;16.92;96.20
13013;BME280;22580;57.670;12.006;2022-09-09T05:38:34;101149.91;;;17.13;96.63
13013;BME280;22580;57.670;12.006;2022-09-09T05:41:02;101140.22;;;16.91;97.57
13013;BME280;22580;57.670;12.006;2022-09-09T05:43:30;101152.75;;;17.31;96.43
13013;BME280;22580;57.670;12.006;2022-09-09T05:46:02;101149.47;;;17.18;96.84
13013;BME280;22580;57.670;12.006;2022-09-09T05:48:30;101158.97;;;17.41;96.42
13013;BME280;22580;57.670;12.006;2022-09-09T05:50:58;101141.91;;;17.50;95.73
13013;BME280;22580;57.670;12.006;2022-09-09T05:53:26;101153.56;;;17.51;95.94
13013;BME280;22580;57.670;12.006;2022-09-09T05:56:00;101148.72;;;17.64;95.04
13013;BME280;22580;57.670;12.006;2022-09-09T05:58:29;101122.03;;;17.32;95.66
13013;BME280;22580;57.670;12.006;2022-09-09T06:01:13;101149.00;;;17.61;94.96
13013;BME280;22580;57.670;12.006;2022-09-09T06:04:00;101119.13;;;17.62;94.58
13013;BME280;22580;57.670;12.006;2022-09-09T06:06:30;101156.81;;;17.93;94.66
13013;BME280;22580;57.670;12.006;2022-09-09T06:09:04;101159.22;;;17.86;94.54
13013;BME280;22580;57.670;12.006;2022-09-09T06:11:32;101147.84;;;17.92;93.92
13013;BME280;22580;57.670;12.006;2022-09-09T06:14:00;101153.69;;;18.25;93.04
13013;BME280;22580;57.670;12.006;2022-09-09T06:16:28;101093.78;;;18.20;91.37
13013;BME280;22580;57.670;12.006;2022-09-09T06:18:58;101092.09;;;18.09;91.72
13013;BME280;22580;57.670;12.006;2022-09-09T06:21:26;101117.50;;;18.26;91.94
13013;BME280;22580;57.670;12.006;2022-09-09T06:23:53;101166.50;;;18.23;92.52
13013;BME280;22580;57.670;12.006;2022-09-09T06:26:23;101146.28;;;18.54;91.46
13013;BME280;22580;57.670;12.006;2022-09-09T06:28:52;101138.53;;;18.69;94.61
13013;BME280;22580;57.670;12.006;2022-09-09T06:31:21;101143.09;;;18.69;92.76
13013;BME280;22580;57.670;12.006;2022-09-09T06:33:49;101143.03;;;19.31;90.18
13013;BME280;22580;57.670;12.006;2022-09-09T06:36:22;101144.06;;;19.30;89.71
13013;BME280;22580;57.670;12.006;2022-09-09T06:38:49;101132.59;;;19.19;89.75
13013;BME280;22580;57.670;12.006;2022-09-09T06:41:18;101138.31;;;19.16;91.25
13013;BME280;22580;57.670;12.006;2022-09-09T06:43:47;101134.53;;;19.26;90.66
13013;BME280;22580;57.670;12.006;2022-09-09T06:46:15;101138.78;;;19.47;89.30
13013;BME280;22580;57.670;12.006;2022-09-09T06:48:43;101139.09;;;19.26;90.12
13013;BME280;22580;57.670;12.006;2022-09-09T06:51:13;101132.75;;;19.53;89.46
13013;BME280;22580;57.670;12.006;2022-09-09T06:53:45;101135.50;;;19.79;88.59
13013;BME280;22580;57.670;12.006;2022-09-09T06:56:20;101134.78;;;19.77;87.92
13013;BME280;22580;57.670;12.006;2022-09-09T06:58:52;101123.25;;;19.75;88.69
13013;BME280;22580;57.670;12.006;2022-09-09T07:01:21;101074.66;;;19.20;88.60
13013;BME280;22580;57.670;12.006;2022-09-09T07:03:50;101117.63;;;19.50;88.28
13013;BME280;22580;57.670;12.006;2022-09-09T07:06:19;101111.50;;;19.48;88.59
13013;BME280;22580;57.670;12.006;2022-09-09T07:08:50;101109.75;;;19.21;89.60
13013;BME280;22580;57.670;12.006;2022-09-09T07:11:19;101121.13;;;19.60;88.40
13013;BME280;22580;57.670;12.006;2022-09-09T07:13:47;101132.13;;;19.41;89.58
13013;BME280;22580;57.670;12.006;2022-09-09T07:16:17;101117.41;;;19.61;88.65
13013;BME280;22580;57.670;12.006;2022-09-09T07:18:50;101107.78;;;19.49;89.01
13013;BME280;22580;57.670;12.006;2022-09-09T07:21:17;101132.50;;;19.64;88.81
13013;BME280;22580;57.670;12.006;2022-09-09T07:23:46;101132.59;;;18.83;92.18
13013;BME280;22580;57.670;12.006;2022-09-09T07:26:15;101131.44;;;18.86;92.65
13013;BME280;22580;57.670;12.006;2022-09-09T07:28:43;101139.03;;;19.00;92.36
13013;BME280;22580;57.670;12.006;2022-09-09T07:31:15;101135.22;;;19.28;91.04
13013;BME280;22580;57.670;12.006;2022-09-09T07:33:44;101120.19;;;19.34;90.79
13013;BME280;22580;57.670;12.006;2022-09-09T07:36:14;101067.06;;;18.80;91.64
13013;BME280;22580;57.670;12.006;2022-09-09T07:38:42;101130.09;;;19.43;90.88
13013;BME280;22580;57.670;12.006;2022-09-09T07:41:12;101135.06;;;19.30;90.71
13013;BME280;22580;57.670;12.006;2022-09-09T07:43:43;101122.13;;;19.42;91.58
13013;BME280;22580;57.670;12.006;2022-09-09T07:46:12;101126.69;;;19.23;91.30
13013;BME280;22580;57.670;12.006;2022-09-09T07:48:45;101125.38;;;19.63;89.93
13013;BME280;22580;57.670;12.006;2022-09-09T07:51:14;101109.91;;;19.20;91.37
13013;BME280;22580;57.670;12.006;2022-09-09T07:53:44;101121.28;;;19.23;91.16
13013;BME280;22580;57.670;12.006;2022-09-09T07:56:14;101115.31;;;19.55;90.15
13013;BME280;22580;57.670;12.006;2022-09-09T07:58:45;101126.47;;;19.35;93.04
13013;BME280;22580;57.670;12.006;2022-09-09T08:01:15;101125.00;;;19.40;91.42
13013;BME280;22580;57.670;12.006;2022-09-09T08:03:45;101127.53;;;19.59;91.82
13013;BME280;22580;57.670;12.006;2022-09-09T08:06:15;101124.19;;;19.48;90.98
13013;BME280;22580;57.670;12.006;2022-09-09T08:08:43;101109.63;;;19.67;90.41
13013;BME280;22580;57.670;12.006;2022-09-09T08:11:16;101108.44;;;20.29;87.60
13013;BME280;22580;57.670;12.006;2022-09-09T08:13:43;101123.88;;;20.28;86.88
13013;BME280;22580;57.670;12.006;2022-09-09T08:16:12;101118.69;;;20.09;87.69
13013;BME280;22580;57.670;12.006;2022-09-09T08:18:40;101123.34;;;20.59;85.84
13013;BME280;22580;57.670;12.006;2022-09-09T08:21:11;101133.63;;;20.39;86.88
13013;BME280;22580;57.670;12.006;2022-09-09T08:23:39;101121.06;;;20.97;84.18
13013;BME280;22580;57.670;12.006;2022-09-09T08:26:10;101118.19;;;21.14;83.72
13013;BME280;22580;57.670;12.006;2022-09-09T08:28:37;101133.13;;;21.02;83.96
13013;BME280;22580;57.670;12.006;2022-09-09T08:31:10;101136.53;;;21.12;83.63
13013;BME280;22580;57.670;12.006;2022-09-09T08:33:37;101101.16;;;20.88;83.58
13013;BME280;22580;57.670;12.006;2022-09-09T08:36:05;101115.25;;;20.91;83.94
13013;BME280;22580;57.670;12.006;2022-09-09T08:38:36;101127.31;;;20.89;84.25
13013;BME280;22580;57.670;12.006;2022-09-09T08:44:12;101114.25;;;20.76;84.89
13013;BME280;22580;57.670;12.006;2022-09-09T08:46:50;101124.09;;;20.85;84.75
13013;BME280;22580;57.670;12.006;2022-09-09T08:49:38;101144.13;;;20.92;85.21
13013;BME280;22580;57.670;12.006;2022-09-09T08:52:16;101130.94;;;21.14;83.64
13013;BME280;22580;57.670;12.006;2022-09-09T08:54:46;101138.38;;;20.79;84.57
13013;BME280;22580;57.670;12.006;2022-09-09T08:57:18;101075.34;;;20.25;86.05
13013;BME280;22580;57.670;12.006;2022-09-09T08:59:46;101128.72;;;20.43;87.14
13013;BME280;22580;57.670;12.006;2022-09-09T09:02:16;101074.84;;;19.88;88.04
13013;BME280;22580;57.670;12.006;2022-09-09T09:05:03;101091.66;;;20.00;88.22
13013;BME280;22580;57.670;12.006;2022-09-09T09:07:43;101138.09;;;20.48;87.74
13013;BME280;22580;57.670;12.006;2022-09-09T09:10:24;101120.94;;;20.48;87.59
13013;BME280;22580;57.670;12.006;2022-09-09T09:12:56;101076.13;;;20.44;86.65
13013;BME280;22580;57.670;12.006;2022-09-09T09:15:25;101124.09;;;20.93;85.54
13013;BME280;22580;57.670;12.006;2022-09-09T09:17:53;101133.59;;;20.89;86.35
13013;BME280;22580;57.670;12.006;2022-09-09T09:20:27;101126.50;;;21.05;85.26
13013;BME280;22580;57.670;12.006;2022-09-09T09:22:59;101101.50;;;20.93;85.06
13013;BME280;22580;57.670;12.006;2022-09-09T09:25:31;101135.69;;;21.12;85.31
13013;BME280;22580;57.670;12.006;2022-09-09T09:28:02;101134.38;;;21.32;85.28
13013;BME280;22580;57.670;12.006;2022-09-09T09:30:35;101131.31;;;21.27;84.90
13013;BME280;22580;57.670;12.006;2022-09-09T09:33:10;101077.06;;;20.93;85.06
13013;BME280;22580;57.670;12.006;2022-09-09T09:35:40;101094.22;;;21.02;85.03
13013;BME280;22580;57.670;12.006;2022-09-09T09:38:16;101131.44;;;21.09;86.17
13013;BME280;22580;57.670;12.006;2022-09-09T09:40:52;101129.06;;;21.14;86.19
13013;BME280;22580;57.670;12.006;2022-09-09T09:43:26;101119.75;;;21.25;85.71
13013;BME280;22580;57.670;12.006;2022-09-09T09:45:54;101128.53;;;21.11;86.56
13013;BME280;22580;57.670;12.006;2022-09-09T09:48:23;101113.56;;;20.90;86.84
13013;BME280;22580;57.670;12.006;2022-09-09T09:50:52;101115.25;;;20.91;87.58
13013;BME280;22580;57.670;12.006;2022-09-09T09:53:23;101107.63;;;21.03;88.28
13013;BME280;22580;57.670;12.006;2022-09-09T09:55:56;101132.84;;;21.21;88.41
13013;BME280;22580;57.670;12.006;2022-09-09T09:58:25;101127.03;;;21.16;89.49
13013;BME280;22580;57.670;12.006;2022-09-09T10:00:53;101119.94;;;21.23;88.88
13013;BME280;22580;57.670;12.006;2022-09-09T10:03:29;101118.38;;;21.21;89.58
13013;BME280;22580;57.670;12.006;2022-09-09T10:05:56;101103.44;;;21.33;89.24
13013;BME280;22580;57.670;12.006;2022-09-09T10:08:24;101131.84;;;21.55;88.27
13013;BME280;22580;57.670;12.006;2022-09-09T10:10:59;101110.75;;;21.33;89.07
13013;BME280;22580;57.670;12.006;2022-09-09T10:13:36;101134.56;;;21.31;89.92
13013;BME280;22580;57.670;12.006;2022-09-09T10:16:25;101082.31;;;21.03;90.89
13013;BME280;22580;57.670;12.006;2022-09-09T10:18:59;101123.47;;;21.16;91.47
13013;BME280;22580;57.670;12.006;2022-09-09T10:21:41;101136.88;;;21.09;91.74
13013;BME280;22580;57.670;12.006;2022-09-09T10:27:27;101127.47;;;20.87;93.31
13013;BME280;22580;57.670;12.006;2022-09-09T10:30:04;101130.88;;;20.73;95.56
13013;BME280;22580;57.670;12.006;2022-09-09T10:32:44;101131.19;;;20.62;95.10
13013;BME280;22580;57.670;12.006;2022-09-09T10:35:19;101089.34;;;20.39;95.64
13013;BME280;22580;57.670;12.006;2022-09-09T10:37:59;101131.19;;;20.62;96.36
13013;BME280;22580;57.670;12.006;2022-09-09T10:40:32;101133.91;;;20.62;96.22
13013;BME280;22580;57.670;12.006;2022-09-09T10:43:10;101127.78;;;20.60;97.17
13013;BME280;22580;57.670;12.006;2022-09-09T10:45:47;101129.78;;;20.50;96.92
13013;BME280;22580;57.670;12.006;2022-09-09T10:48:30;101128.66;;;20.35;97.97
13013;BME280;22580;57.670;12.006;2022-09-09T10:51:08;101127.75;;;20.52;97.21
13013;BME280;22580;57.670;12.006;2022-09-09T10:53:49;101135.53;;;20.47;97.94
13013;BME280;22580;57.670;12.006;2022-09-09T10:56:21;101149.59;;;20.42;98.12
13013;BME280;22580;57.670;12.006;2022-09-09T10:58:54;101145.13;;;20.67;96.99
13013;BME280;22580;57.670;12.006;2022-09-09T11:01:28;101155.31;;;20.73;97.39
13013;BME280;22580;57.670;12.006;2022-09-09T11:04:01;101143.50;;;20.48;97.64
13013;BME280;22580;57.670;12.006;2022-09-09T11:06:35;101145.16;;;20.75;97.25
13013;BME280;22580;57.670;12.006;2022-09-09T11:09:05;101137.13;;;20.66;98.03
13013;BME280;22580;57.670;12.006;2022-09-09T11:11:36;101155.13;;;20.67;98.73
13013;BME280;22580;57.670;12.006;2022-09-09T11:14:13;101116.00;;;20.43;98.39
13013;BME280;22580;57.670;12.006;2022-09-09T11:16:48;101125.91;;;20.60;98.77
13013;BME280;22580;57.670;12.006;2022-09-09T11:19:20;101108.59;;;20.27;99.79
13013;BME280;22580;57.670;12.006;2022-09-09T11:21:52;101161.31;;;20.43;100.00
13013;BME280;22580;57.670;12.006;2022-09-09T11:24:23;101109.66;;;20.35;99.87
13013;BME280;22580;57.670;12.006;2022-09-09T11:26:56;101163.63;;;20.72;100.00
13013;BME280;22580;57.670;12.006;2022-09-09T11:29:42;101162.09;;;20.69;100.00
13013;BME280;22580;57.670;12.006;2022-09-09T11:35:20;101157.34;;;20.71;100.00
13013;BME280;22580;57.670;12.006;2022-09-09T11:38:07;101161.88;;;20.54;100.00
13013;BME280;22580;57.670;12.006;2022-09-09T11:40:40;101160.94;;;20.88;100.00
13013;BME280;22580;57.670;12.006;2022-09-09T11:43:10;101156.84;;;20.84;100.00
13013;BME280;22580;57.670;12.006;2022-09-09T11:45:41;101161.44;;;20.75;100.00
13013;BME280;22580;57.670;12.006;2022-09-09T11:48:23;101153.28;;;20.83;100.00
13013;BME280;22580;57.670;12.006;2022-09-09T11:50:58;101162.97;;;20.78;100.00
13013;BME280;22580;57.670;12.006;2022-09-09T11:53:26;101141.22;;;20.70;100.00
13013;BME280;22580;57.670;12.006;2022-09-09T11:56:09;101147.19;;;20.73;100.00
13013;BME280;22580;57.670;12.006;2022-09-09T11:58:41;101152.97;;;20.94;100.00
13013;BME280;22580;57.670;12.006;2022-09-09T12:01:35;101159.06;;;20.80;100.00
13013;BME280;22580;57.670;12.006;2022-09-09T12:06:58;101127.66;;;20.78;100.00
13013;BME280;22580;57.670;12.006;2022-09-09T12:09:31;101150.25;;;20.94;100.00
13013;BME280;22580;57.670;12.006;2022-09-09T12:12:06;101128.50;;;20.36;100.00
13013;BME280;22580;57.670;12.006;2022-09-09T12:14:42;101145.59;;;20.63;100.00
13013;BME280;22580;57.670;12.006;2022-09-09T12:17:18;101147.78;;;20.51;100.00
13013;BME280;22580;57.670;12.006;2022-09-09T12:19:47;101151.91;;;20.37;100.00
13013;BME280;22580;57.670;12.006;2022-09-09T12:22:22;101152.13;;;20.78;100.00
13013;BME280;22580;57.670;12.006;2022-09-09T12:24:57;101130.88;;;20.81;100.00
13013;BME280;22580;57.670;12.006;2022-09-09T12:27:31;101140.88;;;20.81;100.00
13013;BME280;22580;57.670;12.006;2022-09-09T12:30:04;101147.03;;;20.91;100.00
13013;BME280;22580;57.670;12.006;2022-09-09T12:32:36;101142.09;;;20.78;100.00
13013;BME280;22580;57.670;12.006;2022-09-09T12:35:09;101122.69;;;20.65;100.00
13013;BME280;22580;57.670;12.006;2022-09-09T12:37:39;101147.53;;;20.78;100.00
13013;BME280;22580;57.670;12.006;2022-09-09T12:40:20;101139.03;;;20.81;100.00
13013;BME280;22580;57.670;12.006;2022-09-09T12:42:48;101143.13;;;20.93;100.00
13013;BME280;22580;57.670;12.006;2022-09-09T12:45:17;101119.31;;;20.71;100.00
13013;BME280;22580;57.670;12.006;2022-09-09T12:47:48;101144.75;;;20.62;100.00
13013;BME280;22580;57.670;12.006;2022-09-09T12:50:20;101129.34;;;20.37;100.00
13013;BME280;22580;57.670;12.006;2022-09-09T12:52:49;101149.22;;;20.37;100.00
13013;BME280;22580;57.670;12.006;2022-09-09T12:55:19;101146.56;;;20.45;100.00
13013;BME280;22580;57.670;12.006;2022-09-09T12:57:48;101128.41;;;20.46;100.00
13013;BME280;22580;57.670;12.006;2022-09-09T13:00:19;101142.66;;;20.48;100.00
13013;BME280;22580;57.670;12.006;2022-09-09T13:02:51;101120.75;;;20.15;100.00
13013;BME280;22580;57.670;12.006;2022-09-09T13:05:22;101107.44;;;20.30;100.00
13013;BME280;22580;57.670;12.006;2022-09-09T13:08:00;101123.97;;;20.11;100.00
13013;BME280;22580;57.670;12.006;2022-09-09T13:10:30;101135.53;;;20.21;100.00
13013;BME280;22580;57.670;12.006;2022-09-09T13:12:59;101110.91;;;20.14;100.00